createdAt,value
2023-02-28T00:00:55.909Z,0.00
2023-02-28T00:01:55.930Z,0.00
2023-02-28T00:02:55.857Z,0.00
2023-02-28T00:03:55.840Z,0.00
2023-02-28T00:04:55.819Z,0.00
2023-02-28T00:05:55.777Z,0.00
2023-02-28T00:06:55.743Z,0.00
2023-02-28T00:07:55.736Z,0.00
2023-02-28T00:08:55.695Z,0.00
2023-02-28T00:09:55.674Z,0.00
2023-02-28T00:10:55.641Z,0.00
2023-02-28T00:11:55.616Z,0.00
2023-02-28T00:12:55.576Z,0.00
2023-02-28T00:13:55.557Z,0.00
2023-02-28T00:14:55.519Z,0.00
2023-02-28T00:15:55.507Z,0.00
2023-02-28T00:16:55.504Z,0.00
2023-02-28T00:17:55.440Z,0.00
2023-02-28T00:18:55.406Z,0.00
2023-02-28T00:19:55.383Z,0.00
2023-02-28T00:20:55.349Z,0.00
2023-02-28T00:21:55.329Z,0.00
2023-02-28T00:22:55.289Z,0.00
2023-02-28T00:23:55.268Z,0.00
2023-02-28T00:24:55.230Z,0.00
2023-02-28T00:25:55.219Z,0.00
2023-02-28T00:26:55.185Z,0.00
2023-02-28T00:27:55.154Z,0.00
2023-02-28T00:28:55.118Z,0.00
2023-02-28T00:29:55.091Z,0.00
2023-02-28T00:30:55.113Z,0.00
2023-02-28T00:31:55.117Z,0.00
2023-02-28T00:32:55.018Z,0.00
2023-02-28T00:33:54.992Z,0.00
2023-02-28T00:34:54.961Z,0.00
2023-02-28T00:35:54.953Z,0.00
2023-02-28T00:36:54.914Z,0.00
2023-02-28T00:37:54.877Z,0.00
2023-02-28T00:38:54.842Z,0.00
2023-02-28T00:39:54.815Z,0.00
2023-02-28T00:40:54.782Z,0.00
2023-02-28T00:41:54.767Z,0.00
2023-02-28T00:42:54.721Z,0.00
2023-02-28T00:43:54.720Z,0.00
2023-02-28T00:44:54.676Z,0.00
2023-02-28T00:45:54.680Z,0.00
2023-02-28T00:46:54.608Z,0.00
2023-02-28T00:47:54.613Z,0.00
2023-02-28T00:48:54.546Z,0.00
2023-02-28T00:49:54.521Z,0.00
2023-02-28T00:50:54.501Z,0.00
2023-02-28T00:51:54.467Z,0.00
2023-02-28T00:52:54.443Z,0.00
2023-02-28T00:53:54.409Z,0.00
2023-02-28T00:54:54.381Z,0.00
2023-02-28T00:55:54.362Z,0.00
2023-02-28T00:56:54.321Z,0.00
2023-02-28T00:57:54.301Z,0.00
2023-02-28T00:58:54.272Z,0.00
2023-02-28T00:59:54.249Z,0.00
2023-02-28T01:00:54.209Z,0.00
2023-02-28T01:01:54.201Z,0.00
2023-02-28T01:02:54.148Z,0.00
2023-02-28T01:03:54.157Z,0.00
2023-02-28T01:04:54.094Z,0.00
2023-02-28T01:05:54.188Z,0.00
2023-02-28T01:06:54.049Z,0.00
2023-02-28T01:07:54.007Z,0.00
2023-02-28T01:08:53.980Z,0.00
2023-02-28T01:09:53.957Z,0.00
2023-02-28T01:10:53.919Z,0.00
2023-02-28T01:11:53.894Z,0.00
2023-02-28T01:12:53.858Z,0.00
2023-02-28T01:13:53.840Z,0.00
2023-02-28T01:14:53.813Z,0.00
2023-02-28T01:15:53.821Z,0.00
2023-02-28T01:16:53.763Z,0.00
2023-02-28T01:17:53.732Z,0.00
2023-02-28T01:18:53.691Z,0.00
2023-02-28T01:19:53.683Z,0.00
2023-02-28T01:20:53.647Z,0.00
2023-02-28T01:21:53.615Z,0.00
2023-02-28T01:22:53.585Z,0.00
2023-02-28T01:23:53.549Z,0.00
2023-02-28T01:24:53.540Z,0.00
2023-02-28T01:25:53.494Z,0.00
2023-02-28T01:26:53.455Z,0.00
2023-02-28T01:27:53.455Z,0.00
2023-02-28T01:28:53.412Z,0.00
2023-02-28T01:29:53.383Z,0.00
2023-02-28T01:30:53.421Z,0.00
2023-02-28T01:31:53.354Z,0.00
2023-02-28T01:32:53.284Z,0.00
2023-02-28T01:33:53.260Z,0.00
2023-02-28T01:34:53.225Z,0.00
2023-02-28T01:35:53.244Z,0.00
2023-02-28T01:36:53.170Z,0.00
2023-02-28T01:37:53.545Z,0.00
2023-02-28T01:38:53.111Z,0.00
2023-02-28T01:39:53.082Z,0.00
2023-02-28T01:40:53.048Z,0.00
2023-02-28T01:41:53.020Z,0.00
2023-02-28T01:42:52.991Z,0.00
2023-02-28T01:43:52.970Z,0.00
2023-02-28T01:44:52.932Z,0.00
2023-02-28T01:45:52.910Z,0.00
2023-02-28T01:46:52.895Z,0.00
2023-02-28T01:47:52.848Z,0.00
2023-02-28T01:48:52.840Z,0.00
2023-02-28T01:49:52.796Z,0.00
2023-02-28T01:50:52.764Z,0.00
2023-02-28T01:51:52.747Z,0.00
2023-02-28T01:52:52.718Z,0.00
2023-02-28T01:53:52.726Z,0.00
2023-02-28T01:54:52.696Z,0.00
2023-02-28T01:55:52.613Z,0.00
2023-02-28T01:56:52.583Z,0.00
2023-02-28T01:57:52.573Z,0.00
2023-02-28T01:58:52.520Z,0.00
2023-02-28T01:59:52.496Z,0.00
2023-02-28T02:00:52.459Z,0.00
2023-02-28T02:01:52.511Z,0.00
2023-02-28T02:02:52.430Z,0.00
2023-02-28T02:03:52.381Z,0.00
2023-02-28T02:04:52.341Z,0.00
2023-02-28T02:05:52.315Z,0.00
2023-02-28T02:06:52.283Z,0.00
2023-02-28T02:07:52.265Z,0.00
2023-02-28T02:08:52.221Z,0.00
2023-02-28T02:09:52.198Z,0.00
2023-02-28T02:10:52.183Z,0.00
2023-02-28T02:11:52.172Z,0.00
2023-02-28T02:12:52.113Z,0.00
2023-02-28T02:13:52.088Z,0.00
2023-02-28T02:14:52.049Z,0.00
2023-02-28T02:15:52.071Z,0.00
2023-02-28T02:16:51.998Z,0.00
2023-02-28T02:17:51.965Z,0.00
2023-02-28T02:18:51.930Z,0.00
2023-02-28T02:19:51.908Z,0.00
2023-02-28T02:20:51.889Z,0.00
2023-02-28T02:21:51.897Z,0.00
2023-02-28T02:22:51.810Z,0.00
2023-02-28T02:23:51.790Z,0.00
2023-02-28T02:24:51.758Z,0.00
2023-02-28T02:25:51.726Z,0.00
2023-02-28T02:26:51.704Z,0.00
2023-02-28T02:27:51.677Z,0.00
2023-02-28T02:28:51.641Z,0.00
2023-02-28T02:29:51.640Z,0.00
2023-02-28T02:30:51.579Z,0.00
2023-02-28T02:31:51.704Z,0.00
2023-02-28T02:32:51.544Z,0.00
2023-02-28T02:33:51.503Z,0.00
2023-02-28T02:34:51.494Z,0.00
2023-02-28T02:35:51.447Z,0.00
2023-02-28T02:36:51.405Z,0.00
2023-02-28T02:37:51.392Z,0.00
2023-02-28T02:38:51.346Z,0.00
2023-02-28T02:39:51.317Z,0.00
2023-02-28T02:40:51.278Z,0.00
2023-02-28T02:41:51.257Z,0.00
2023-02-28T02:42:51.223Z,0.00
2023-02-28T02:43:51.198Z,0.00
2023-02-28T02:44:51.159Z,0.00
2023-02-28T02:45:51.139Z,0.00
2023-02-28T02:46:51.169Z,0.00
2023-02-28T02:47:51.080Z,0.00
2023-02-28T02:48:51.062Z,0.00
2023-02-28T02:49:51.020Z,0.00
2023-02-28T02:50:50.987Z,0.00
2023-02-28T02:51:50.963Z,0.00
2023-02-28T02:52:50.926Z,0.00
2023-02-28T02:53:50.903Z,0.00
2023-02-28T02:54:50.885Z,0.00
2023-02-28T02:55:50.841Z,0.00
2023-02-28T02:56:50.815Z,0.00
2023-02-28T02:57:50.801Z,0.00
2023-02-28T02:58:50.747Z,0.00
2023-02-28T02:59:50.732Z,0.00
2023-02-28T03:00:50.748Z,0.00
2023-02-28T03:01:50.665Z,0.00
2023-02-28T03:02:50.629Z,0.00
2023-02-28T03:03:50.627Z,0.00
2023-02-28T03:04:50.576Z,0.00
2023-02-28T03:05:50.553Z,0.00
2023-02-28T03:06:50.509Z,0.00
2023-02-28T03:07:50.487Z,0.00
2023-02-28T03:08:50.455Z,0.00
2023-02-28T03:09:50.427Z,0.00
2023-02-28T03:10:50.398Z,0.00
2023-02-28T03:11:50.363Z,0.00
2023-02-28T03:12:50.345Z,0.00
2023-02-28T03:13:50.307Z,0.00
2023-02-28T03:14:50.290Z,0.00
2023-02-28T03:15:50.269Z,0.00
2023-02-28T03:16:50.211Z,0.00
2023-02-28T03:17:50.189Z,0.00
2023-02-28T03:18:50.154Z,0.00
2023-02-28T03:19:50.132Z,0.00
2023-02-28T03:20:50.099Z,0.00
2023-02-28T03:21:50.088Z,0.00
2023-02-28T03:22:50.087Z,0.00
2023-02-28T03:23:50.017Z,0.00
2023-02-28T03:24:49.991Z,0.00
2023-02-28T03:25:49.952Z,0.00
2023-02-28T03:26:49.933Z,0.00
2023-02-28T03:27:49.900Z,0.00
2023-02-28T03:28:49.857Z,0.00
2023-02-28T03:29:49.836Z,0.00
2023-02-28T03:30:49.805Z,0.00
2023-02-28T03:31:49.920Z,0.00
2023-02-28T03:32:49.772Z,0.00
2023-02-28T03:33:49.716Z,0.00
2023-02-28T03:34:49.688Z,0.00
2023-02-28T03:35:49.677Z,0.00
2023-02-28T03:36:49.648Z,0.00
2023-02-28T03:37:49.624Z,0.00
2023-02-28T03:38:49.581Z,0.00
2023-02-28T03:39:49.540Z,0.00
2023-02-28T03:40:49.508Z,0.00
2023-02-28T03:41:49.482Z,0.00
2023-02-28T03:42:49.444Z,0.00
2023-02-28T03:43:49.419Z,0.00
2023-02-28T03:44:49.387Z,0.00
2023-02-28T03:45:49.398Z,0.00
2023-02-28T03:46:49.326Z,0.00
2023-02-28T03:47:49.311Z,0.00
2023-02-28T03:48:49.277Z,0.00
2023-02-28T03:49:49.251Z,0.00
2023-02-28T03:50:49.215Z,0.00
2023-02-28T03:51:49.184Z,0.00
2023-02-28T03:52:49.147Z,0.00
2023-02-28T03:53:49.137Z,0.00
2023-02-28T03:54:49.092Z,0.00
2023-02-28T03:55:49.065Z,0.00
2023-02-28T03:56:49.032Z,0.00
2023-02-28T03:57:49.003Z,0.00
2023-02-28T03:58:48.973Z,0.00
2023-02-28T03:59:48.946Z,0.00
2023-02-28T04:00:48.908Z,0.00
2023-02-28T04:01:48.910Z,0.00
2023-02-28T04:02:48.859Z,0.00
2023-02-28T04:03:48.827Z,0.00
2023-02-28T04:04:48.949Z,0.00
2023-02-28T04:05:48.769Z,0.00
2023-02-28T04:06:50.241Z,0.00
2023-02-28T04:07:48.709Z,0.00
2023-02-28T04:08:48.675Z,0.00
2023-02-28T04:09:48.662Z,0.00
2023-02-28T04:10:48.620Z,0.00
2023-02-28T04:11:48.597Z,0.00
2023-02-28T04:12:48.558Z,0.00
2023-02-28T04:13:48.521Z,0.00
2023-02-28T04:14:48.494Z,0.00
2023-02-28T04:15:48.501Z,0.00
2023-02-28T04:16:48.476Z,0.00
2023-02-28T04:17:48.402Z,0.00
2023-02-28T04:18:48.379Z,0.00
2023-02-28T04:19:48.346Z,0.00
2023-02-28T04:20:48.323Z,0.00
2023-02-28T04:21:48.285Z,0.00
2023-02-28T04:22:48.261Z,0.00
2023-02-28T04:23:48.248Z,0.00
2023-02-28T04:24:48.195Z,0.00
2023-02-28T04:25:48.171Z,0.00
2023-02-28T04:26:48.147Z,0.00
2023-02-28T04:27:48.116Z,0.00
2023-02-28T04:28:48.085Z,0.00
2023-02-28T04:29:48.050Z,0.00
2023-02-28T04:30:48.018Z,0.00
2023-02-28T04:31:48.059Z,0.00
2023-02-28T04:32:47.969Z,0.00
2023-02-28T04:33:47.934Z,0.00
2023-02-28T04:34:47.917Z,0.00
2023-02-28T04:35:47.985Z,0.00
2023-02-28T04:36:47.855Z,0.00
2023-02-28T04:37:47.807Z,0.00
2023-02-28T04:38:47.785Z,0.00
2023-02-28T04:39:47.774Z,0.00
2023-02-28T04:40:47.726Z,0.00
2023-02-28T04:41:47.688Z,0.00
2023-02-28T04:42:47.681Z,0.00
2023-02-28T04:43:47.634Z,0.00
2023-02-28T04:44:47.607Z,0.00
2023-02-28T04:45:47.603Z,0.00
2023-02-28T04:46:47.538Z,0.00
2023-02-28T04:47:47.519Z,0.00
2023-02-28T04:48:47.486Z,0.00
2023-02-28T04:49:47.472Z,0.00
2023-02-28T04:50:47.431Z,0.00
2023-02-28T04:51:47.390Z,0.00
2023-02-28T04:52:47.358Z,0.00
2023-02-28T04:53:47.326Z,0.00
2023-02-28T04:54:47.305Z,0.00
2023-02-28T04:55:47.265Z,0.00
2023-02-28T04:56:47.242Z,0.00
2023-02-28T04:57:47.208Z,0.00
2023-02-28T04:58:47.181Z,0.00
2023-02-28T04:59:47.150Z,0.00
2023-02-28T05:00:47.124Z,0.00
2023-02-28T05:01:47.084Z,0.00
2023-02-28T05:02:47.071Z,0.00
2023-02-28T05:03:47.033Z,0.00
2023-02-28T05:04:47.088Z,0.00
2023-02-28T05:05:46.974Z,0.00
2023-02-28T05:06:46.951Z,0.00
2023-02-28T05:07:46.942Z,0.00
2023-02-28T05:08:46.903Z,0.00
2023-02-28T05:09:46.849Z,0.00
2023-02-28T05:10:46.828Z,0.00
2023-02-28T05:11:46.785Z,0.00
2023-02-28T05:12:46.761Z,0.00
2023-02-28T05:13:46.726Z,0.00
2023-02-28T05:14:46.713Z,0.00
2023-02-28T05:15:46.686Z,0.00
2023-02-28T05:16:46.646Z,0.00
2023-02-28T05:17:46.609Z,0.00
2023-02-28T05:18:46.609Z,0.00
2023-02-28T05:19:46.565Z,0.00
2023-02-28T05:20:46.526Z,0.00
2023-02-28T05:21:46.488Z,0.00
2023-02-28T05:22:46.490Z,0.00
2023-02-28T05:23:48.137Z,0.00
2023-02-28T05:24:46.409Z,0.00
2023-02-28T05:25:46.373Z,0.00
2023-02-28T05:26:46.342Z,0.00
2023-02-28T05:27:46.320Z,0.00
2023-02-28T05:28:46.283Z,0.00
2023-02-28T05:29:46.252Z,0.00
2023-02-28T05:30:46.229Z,0.00
2023-02-28T05:31:46.306Z,0.00
2023-02-28T05:32:46.166Z,0.00
2023-02-28T05:33:46.134Z,0.00
2023-02-28T05:34:46.125Z,0.00
2023-02-28T05:35:46.156Z,0.00
2023-02-28T05:36:46.070Z,0.00
2023-02-28T05:37:46.016Z,0.00
2023-02-28T05:38:45.982Z,0.00
2023-02-28T05:39:45.952Z,0.00
2023-02-28T05:40:45.928Z,4.00
2023-02-28T05:41:45.898Z,4.00
2023-02-28T05:42:45.862Z,0.00
2023-02-28T05:43:45.830Z,4.00
2023-02-28T05:44:45.806Z,4.00
2023-02-28T05:45:45.847Z,4.00
2023-02-28T05:46:45.751Z,8.00
2023-02-28T05:47:45.713Z,8.00
2023-02-28T05:48:45.735Z,8.00
2023-02-28T05:49:45.648Z,8.00
2023-02-28T05:50:45.630Z,12.00
2023-02-28T05:51:45.594Z,12.00
2023-02-28T05:52:45.566Z,16.00
2023-02-28T05:53:45.532Z,24.00
2023-02-28T05:54:45.507Z,24.00
2023-02-28T05:55:45.477Z,28.00
2023-02-28T05:56:45.449Z,32.00
2023-02-28T05:57:45.426Z,40.00
2023-02-28T05:58:45.390Z,44.00
2023-02-28T05:59:45.354Z,52.00
2023-02-28T06:00:45.333Z,60.00
2023-02-28T06:01:45.296Z,72.00
2023-02-28T06:02:45.276Z,84.00
2023-02-28T06:03:45.291Z,92.00
2023-02-28T06:04:45.214Z,108.00
2023-02-28T06:05:45.178Z,120.00
2023-02-28T06:06:45.153Z,136.00
2023-02-28T06:07:45.126Z,152.00
2023-02-28T06:08:45.093Z,168.00
2023-02-28T06:09:45.073Z,184.00
2023-02-28T06:10:45.033Z,200.00
2023-02-28T06:11:45.005Z,224.00
2023-02-28T06:12:44.997Z,244.00
2023-02-28T06:13:44.942Z,260.00
2023-02-28T06:14:44.923Z,280.00
2023-02-28T06:15:44.879Z,304.00
2023-02-28T06:16:44.896Z,324.00
2023-02-28T06:17:44.839Z,344.00
2023-02-28T06:18:44.801Z,364.00
2023-02-28T06:19:44.762Z,388.00
2023-02-28T06:20:44.736Z,412.00
2023-02-28T06:21:44.712Z,436.00
2023-02-28T06:22:44.680Z,456.00
2023-02-28T06:23:44.649Z,484.00
2023-02-28T06:24:44.625Z,508.00
2023-02-28T06:25:44.585Z,536.00
2023-02-28T06:26:44.560Z,568.00
2023-02-28T06:27:44.531Z,596.00
2023-02-28T06:28:44.498Z,632.00
2023-02-28T06:29:44.464Z,664.00
2023-02-28T06:30:46.442Z,696.00
2023-02-28T06:31:44.470Z,728.00
2023-02-28T06:32:44.381Z,764.00
2023-02-28T06:33:44.367Z,800.00
2023-02-28T06:34:44.331Z,836.00
2023-02-28T06:35:44.301Z,872.00
2023-02-28T06:36:44.266Z,912.00
2023-02-28T06:37:44.235Z,948.00
2023-02-28T06:38:44.209Z,992.00
2023-02-28T06:39:44.174Z,1040.00
2023-02-28T06:40:44.141Z,1084.00
2023-02-28T06:41:54.738Z,1128.00
2023-02-28T06:42:44.100Z,1176.00
2023-02-28T06:43:44.053Z,1224.00
2023-02-28T06:44:44.036Z,1268.00
2023-02-28T06:45:43.991Z,1308.00
2023-02-28T06:46:43.974Z,1348.00
2023-02-28T06:47:43.942Z,1388.00
2023-02-28T06:48:43.924Z,1428.00
2023-02-28T06:49:43.890Z,1468.00
2023-02-28T06:50:43.854Z,1508.00
2023-02-28T06:51:43.823Z,1548.00
2023-02-28T06:52:43.790Z,1580.00
2023-02-28T06:53:43.765Z,1608.00
2023-02-28T06:54:43.734Z,1632.00
2023-02-28T06:55:43.700Z,1660.00
2023-02-28T06:56:43.676Z,1684.00
2023-02-28T06:57:43.637Z,1716.00
2023-02-28T06:58:43.613Z,1752.00
2023-02-28T06:59:43.582Z,1788.00
2023-02-28T07:00:43.560Z,1800.00
2023-02-28T07:01:43.536Z,1848.00
2023-02-28T07:02:43.502Z,1872.00
2023-02-28T07:03:43.470Z,1892.00
2023-02-28T07:04:43.468Z,1916.00
2023-02-28T07:05:43.400Z,1960.00
2023-02-28T07:06:43.388Z,2004.00
2023-02-28T07:07:43.352Z,2028.00
2023-02-28T07:08:43.325Z,2048.00
2023-02-28T07:09:43.294Z,2080.00
2023-02-28T07:10:43.271Z,2104.00
2023-02-28T07:11:43.246Z,2124.00
2023-02-28T07:12:43.202Z,2148.00
2023-02-28T07:13:43.167Z,2176.00
2023-02-28T07:14:43.152Z,2200.00
2023-02-28T07:15:44.331Z,2232.00
2023-02-28T07:16:43.083Z,2264.00
2023-02-28T07:17:43.056Z,2296.00
2023-02-28T07:18:43.032Z,2324.00
2023-02-28T07:19:43.000Z,2352.00
2023-02-28T07:20:42.970Z,2376.00
2023-02-28T07:21:42.938Z,2404.00
2023-02-28T07:22:42.950Z,2432.00
2023-02-28T07:23:42.899Z,2456.00
2023-02-28T07:24:42.855Z,2496.00
2023-02-28T07:25:42.847Z,2532.00
2023-02-28T07:27:42.781Z,2628.00
2023-02-28T07:28:42.746Z,2660.00
2023-02-28T07:29:42.715Z,2672.00
2023-02-28T07:30:42.684Z,2692.00
2023-02-28T07:31:42.679Z,2708.00
2023-02-28T07:32:45.009Z,2744.00
2023-02-28T07:33:42.737Z,2780.00
2023-02-28T07:34:42.572Z,2816.00
2023-02-28T07:35:42.560Z,2848.00
2023-02-28T07:36:42.525Z,2900.00
2023-02-28T07:37:42.501Z,2928.00
2023-02-28T07:38:42.477Z,2936.00
2023-02-28T07:39:42.443Z,3008.00
2023-02-28T07:40:42.408Z,3040.00
2023-02-28T07:41:42.375Z,3052.00
2023-02-28T07:42:42.354Z,3068.00
2023-02-28T07:43:42.324Z,3076.00
2023-02-28T07:44:42.303Z,3096.00
2023-02-28T07:45:42.269Z,3156.00
2023-02-28T07:46:42.290Z,3248.00
2023-02-28T07:47:42.218Z,3368.00
2023-02-28T07:48:42.205Z,3448.00
2023-02-28T07:49:42.190Z,3536.00
2023-02-28T07:50:42.150Z,3592.00
2023-02-28T07:51:42.110Z,3644.00
2023-02-28T07:52:42.086Z,3728.00
2023-02-28T07:53:42.062Z,3824.00
2023-02-28T07:54:42.055Z,3884.00
2023-02-28T07:55:42.020Z,3936.00
2023-02-28T07:56:41.987Z,3984.00
2023-02-28T07:57:41.954Z,4004.00
2023-02-28T07:58:41.931Z,4012.00
2023-02-28T07:59:41.940Z,4044.00
2023-02-28T08:00:41.958Z,4148.00
2023-02-28T08:01:41.838Z,4216.00
2023-02-28T08:02:41.826Z,4300.00
2023-02-28T08:03:41.796Z,4452.00
2023-02-28T08:04:41.841Z,4556.00
2023-02-28T08:05:41.741Z,4648.00
2023-02-28T08:06:41.721Z,4732.00
2023-02-28T08:07:41.704Z,4832.00
2023-02-28T08:08:41.664Z,4924.00
2023-02-28T08:09:41.631Z,5008.00
2023-02-28T08:10:41.641Z,5108.00
2023-02-28T08:11:41.576Z,5216.00
2023-02-28T08:12:41.560Z,5340.00
2023-02-28T08:13:41.535Z,5452.00
2023-02-28T08:14:41.506Z,5552.00
2023-02-28T08:15:41.504Z,5656.00
2023-02-28T08:16:41.489Z,5804.00
2023-02-28T08:17:41.433Z,5956.00
2023-02-28T08:18:41.416Z,6176.00
2023-02-28T08:19:41.367Z,6284.00
2023-02-28T08:20:41.358Z,6368.00
2023-02-28T08:21:41.325Z,6512.00
2023-02-28T08:22:41.298Z,6652.00
2023-02-28T08:23:41.293Z,6796.00
2023-02-28T08:24:41.248Z,6928.00
2023-02-28T08:25:41.223Z,7076.00
2023-02-28T08:26:41.201Z,7212.00
2023-02-28T08:27:41.170Z,7340.00
2023-02-28T08:28:41.140Z,7504.00
2023-02-28T08:29:41.125Z,7600.00
2023-02-28T08:30:41.095Z,7724.00
2023-02-28T08:31:41.140Z,7892.00
2023-02-28T08:32:41.244Z,8128.00
2023-02-28T08:33:41.053Z,8396.00
2023-02-28T08:34:40.985Z,8640.00
2023-02-28T08:35:40.995Z,8848.00
2023-02-28T08:36:41.001Z,9020.00
2023-02-28T08:37:40.918Z,9288.00
2023-02-28T08:38:40.889Z,9588.00
2023-02-28T08:39:40.863Z,9876.00
2023-02-28T08:40:40.836Z,10204.00
2023-02-28T08:41:40.885Z,10516.00
2023-02-28T08:42:40.793Z,10872.00
2023-02-28T08:43:40.770Z,11248.00
2023-02-28T08:44:40.745Z,11660.00
2023-02-28T08:45:40.793Z,12072.00
2023-02-28T08:46:40.682Z,12456.00
2023-02-28T08:47:40.699Z,12828.00
2023-02-28T08:48:40.638Z,13224.00
2023-02-28T08:49:40.615Z,13632.00
2023-02-28T08:50:40.580Z,14064.00
2023-02-28T08:51:40.560Z,14492.00
2023-02-28T08:52:40.583Z,14892.00
2023-02-28T08:53:40.551Z,15268.00
2023-02-28T08:54:40.476Z,15692.00
2023-02-28T08:55:40.456Z,16352.00
2023-02-28T08:56:40.432Z,16736.00
2023-02-28T08:57:40.406Z,17120.00
2023-02-28T08:58:40.377Z,17632.00
2023-02-28T08:59:40.385Z,18016.00
2023-02-28T09:00:41.062Z,18272.00
2023-02-28T09:01:40.307Z,18688.00
2023-02-28T09:02:40.283Z,19232.00
2023-02-28T09:03:40.299Z,19648.00
2023-02-28T09:04:40.224Z,20032.00
2023-02-28T09:05:40.203Z,20448.00
2023-02-28T09:06:40.174Z,20928.00
2023-02-28T09:07:40.149Z,21248.00
2023-02-28T09:08:40.128Z,21408.00
2023-02-28T09:09:40.111Z,22624.00
2023-02-28T09:10:40.076Z,22784.00
2023-02-28T09:11:40.068Z,23104.00
2023-02-28T09:12:40.038Z,20096.00
2023-02-28T09:13:39.999Z,24064.00
2023-02-28T09:14:39.981Z,24672.00
2023-02-28T09:15:39.960Z,25696.00
2023-02-28T09:16:39.977Z,25696.00
2023-02-28T09:17:39.904Z,26336.00
2023-02-28T09:18:39.901Z,25632.00
2023-02-28T09:19:39.915Z,27488.00
2023-02-28T09:20:39.824Z,28192.00
2023-02-28T09:21:39.814Z,27744.00
2023-02-28T09:22:39.789Z,5852.00
2023-02-28T09:23:39.764Z,29120.00
2023-02-28T09:25:39.708Z,30336.00
2023-02-28T09:26:43.417Z,30272.00
2023-02-28T09:27:40.267Z,30752.00
2023-02-28T09:28:39.627Z,30592.00
2023-02-28T09:29:39.613Z,30112.00
2023-02-28T09:30:39.612Z,29504.00
2023-02-28T09:31:39.557Z,25856.00
2023-02-28T09:32:39.540Z,28928.00
2023-02-28T09:33:39.514Z,27936.00
2023-02-28T09:34:39.535Z,29888.00
2023-02-28T09:35:39.455Z,32704.00
2023-02-28T09:36:45.076Z,33728.00
2023-02-28T09:37:39.408Z,34208.00
2023-02-28T09:38:39.375Z,33728.00
2023-02-28T09:39:39.366Z,34208.00
2023-02-28T09:40:39.326Z,34720.00
2023-02-28T09:41:39.308Z,9168.00
2023-02-28T09:42:39.284Z,36960.00
2023-02-28T09:43:39.268Z,37632.00
2023-02-28T09:44:39.231Z,37728.00
2023-02-28T09:45:39.203Z,39168.00
2023-02-28T09:46:39.235Z,38208.00
2023-02-28T09:47:39.222Z,38784.00
2023-02-28T09:48:41.119Z,40768.00
2023-02-28T09:49:39.122Z,41216.00
2023-02-28T09:50:39.094Z,38816.00
2023-02-28T09:51:39.056Z,38176.00
2023-02-28T09:52:39.036Z,39872.00
2023-02-28T09:53:39.100Z,41440.00
2023-02-28T09:54:38.994Z,40832.00
2023-02-28T09:55:46.623Z,41280.00
2023-02-28T09:56:38.940Z,41760.00
2023-02-28T09:57:38.906Z,43360.00
2023-02-28T09:58:38.905Z,44224.00
2023-02-28T09:59:38.887Z,44448.00
2023-02-28T10:00:38.891Z,43104.00
2023-02-28T10:01:38.853Z,43520.00
2023-02-28T10:02:38.807Z,42208.00
2023-02-28T10:03:38.779Z,41728.00
2023-02-28T10:04:38.856Z,43584.00
2023-02-28T10:05:38.722Z,44480.00
2023-02-28T10:06:38.686Z,44480.00
2023-02-28T10:07:38.672Z,43840.00
2023-02-28T10:08:38.648Z,42016.00
2023-02-28T10:09:38.624Z,39712.00
2023-02-28T10:10:38.598Z,40224.00
2023-02-28T10:11:38.573Z,41088.00
2023-02-28T10:12:38.548Z,40768.00
2023-02-28T10:13:38.525Z,42432.00
2023-02-28T10:14:38.496Z,41056.00
2023-02-28T10:15:38.564Z,39456.00
2023-02-28T10:16:38.455Z,40928.00
2023-02-28T10:17:49.312Z,43168.00
2023-02-28T10:18:38.407Z,42912.00
2023-02-28T10:19:38.384Z,43296.00
2023-02-28T10:20:38.382Z,43040.00
2023-02-28T10:21:38.334Z,43424.00
2023-02-28T10:22:38.301Z,45824.00
2023-02-28T10:23:38.288Z,46848.00
2023-02-28T10:24:38.259Z,45216.00
2023-02-28T10:25:38.242Z,46112.00
2023-02-28T10:26:38.209Z,47200.00
2023-02-28T10:27:38.194Z,47904.00
2023-02-28T10:28:38.178Z,47104.00
2023-02-28T10:29:38.146Z,47008.00
2023-02-28T10:30:38.119Z,45632.00
2023-02-28T10:31:38.098Z,45216.00
2023-02-28T10:32:38.081Z,45504.00
2023-02-28T10:33:38.054Z,47936.00
2023-02-28T10:34:38.023Z,47680.00
2023-02-28T10:35:38.012Z,46336.00
2023-02-28T10:36:37.980Z,46144.00
2023-02-28T10:37:37.964Z,46880.00
2023-02-28T10:38:37.936Z,48608.00
2023-02-28T10:39:37.906Z,50176.00
2023-02-28T10:40:37.889Z,49312.00
2023-02-28T10:41:37.880Z,48352.00
2023-02-28T10:42:37.864Z,57504.00
2023-02-28T10:43:37.824Z,48896.00
2023-02-28T10:44:37.790Z,48576.00
2023-02-28T10:45:37.788Z,48192.00
2023-02-28T10:46:37.897Z,47904.00
2023-02-28T10:47:37.728Z,49056.00
2023-02-28T10:48:37.695Z,48736.00
2023-02-28T10:49:37.678Z,48288.00
2023-02-28T10:50:37.688Z,48480.00
2023-02-28T10:51:37.665Z,48256.00
2023-02-28T10:52:37.624Z,47712.00
2023-02-28T10:53:52.505Z,47968.00
2023-02-28T10:54:37.566Z,48384.00
2023-02-28T10:55:37.553Z,48192.00
2023-02-28T10:56:37.529Z,46688.00
2023-02-28T10:57:37.506Z,44640.00
2023-02-28T10:58:37.479Z,42368.00
2023-02-28T10:59:37.458Z,41120.00
2023-02-28T11:00:37.439Z,40416.00
2023-02-28T11:01:37.447Z,39520.00
2023-02-28T11:02:37.525Z,39552.00
2023-02-28T11:03:37.370Z,38048.00
2023-02-28T11:04:37.379Z,36928.00
2023-02-28T11:05:37.329Z,37120.00
2023-02-28T11:06:37.348Z,37376.00
2023-02-28T11:07:50.567Z,13920.00
2023-02-28T11:08:37.254Z,32800.00
2023-02-28T11:09:37.254Z,18208.00
2023-02-28T11:10:37.647Z,31296.00
2023-02-28T11:11:37.229Z,27968.00
2023-02-28T11:12:43.410Z,21120.00
2023-02-28T11:13:37.161Z,30688.00
2023-02-28T11:14:37.126Z,24736.00
2023-02-28T11:15:37.115Z,28320.00
2023-02-28T11:16:37.083Z,28768.00
2023-02-28T11:17:37.065Z,28128.00
2023-02-28T11:18:37.043Z,24096.00
2023-02-28T11:19:37.051Z,27808.00
2023-02-28T11:20:36.994Z,16312.00
2023-02-28T11:21:36.977Z,26720.00
2023-02-28T11:22:36.961Z,26016.00
2023-02-28T11:23:37.952Z,26304.00
2023-02-28T11:24:36.906Z,26016.00
2023-02-28T11:25:36.902Z,26144.00
2023-02-28T11:26:36.867Z,26016.00
2023-02-28T11:27:36.854Z,25472.00
2023-02-28T11:28:36.870Z,25376.00
2023-02-28T11:29:36.809Z,25088.00
2023-02-28T11:30:36.795Z,24928.00
2023-02-28T11:31:36.799Z,24704.00
2023-02-28T11:32:36.829Z,24320.00
2023-02-28T11:33:36.719Z,23968.00
2023-02-28T11:34:36.713Z,24096.00
2023-02-28T11:35:36.704Z,24160.00
2023-02-28T11:36:36.662Z,24864.00
2023-02-28T11:37:36.650Z,24768.00
2023-02-28T11:38:36.643Z,24896.00
2023-02-28T11:39:36.599Z,24480.00
2023-02-28T11:40:36.569Z,24512.00
2023-02-28T11:41:36.562Z,24288.00
2023-02-28T11:42:36.541Z,24192.00
2023-02-28T11:43:36.526Z,24096.00
2023-02-28T11:44:36.502Z,24032.00
2023-02-28T11:45:36.471Z,24544.00
2023-02-28T11:46:36.473Z,25120.00
2023-02-28T11:47:36.439Z,17568.00
2023-02-28T11:48:36.427Z,23680.00
2023-02-28T11:49:36.396Z,24224.00
2023-02-28T11:50:36.382Z,23968.00
2023-02-28T11:51:36.401Z,23680.00
2023-02-28T11:52:36.349Z,23616.00
2023-02-28T11:53:36.317Z,23872.00
2023-02-28T11:54:36.464Z,23872.00
2023-02-28T11:55:36.298Z,23520.00
2023-02-28T11:56:36.252Z,22048.00
2023-02-28T11:57:36.250Z,22880.00
2023-02-28T11:58:36.224Z,23200.00
2023-02-28T11:59:36.212Z,23296.00
2023-02-28T12:00:36.180Z,23008.00
2023-02-28T12:01:36.188Z,21888.00
2023-02-28T12:02:36.190Z,22368.00
2023-02-28T12:03:36.202Z,21792.00
2023-02-28T12:04:36.155Z,21952.00
2023-02-28T12:05:36.093Z,18016.00
2023-02-28T12:06:36.064Z,21312.00
2023-02-28T12:07:36.055Z,21792.00
2023-02-28T12:08:36.037Z,21888.00
2023-02-28T12:09:36.020Z,22112.00
2023-02-28T12:10:35.994Z,22496.00
2023-02-28T12:11:35.981Z,22592.00
2023-02-28T12:12:35.954Z,22816.00
2023-02-28T12:13:35.941Z,23200.00
2023-02-28T12:14:35.919Z,23552.00
2023-02-28T12:15:35.931Z,23680.00
2023-02-28T12:16:35.915Z,23200.00
2023-02-28T12:17:35.874Z,23008.00
2023-02-28T12:18:35.841Z,23328.00
2023-02-28T12:19:35.831Z,24000.00
2023-02-28T12:20:35.809Z,24768.00
2023-02-28T12:21:35.792Z,25184.00
2023-02-28T12:22:35.778Z,25632.00
2023-02-28T12:23:35.754Z,24768.00
2023-02-28T12:24:35.742Z,25248.00
2023-02-28T12:25:35.764Z,26272.00
2023-02-28T12:26:35.738Z,27296.00
2023-02-28T12:27:35.693Z,26752.00
2023-02-28T12:28:35.654Z,25824.00
2023-02-28T12:29:35.651Z,25120.00
2023-02-28T12:30:35.619Z,25920.00
2023-02-28T12:31:35.621Z,24352.00
2023-02-28T12:32:35.653Z,23520.00
2023-02-28T12:33:35.591Z,22848.00
2023-02-28T12:34:35.541Z,22816.00